THY9BX LTFM-LJLJ
Flight info
| Callsign | THY9BX |
|---|---|
| Flight time | N/A |
| Altitude | 36000 |
| Route | VADEN N618 BAKLO DCT XANEX DCT UTEKA DCT MAGAM |
| Aircraft | A321/M-SDE3FGHIRWY/LB1 |
Departure
| Time | N/A |
|---|---|
| Airport | İstanbul Airport (LTFM) |
Arrival
| Time | 2026-04-24 00:14 |
|---|---|
| Airport | Ljubljana Jože Pučnik Airport (LJLJ) |
| Time | Latitude | Longitude | Altitude | Speed | Heading |
|---|---|---|---|---|---|
| 2026-04-23 23:10 | 43.60045 | 23.45181 | 35996 ft | 434 kts | 296° |
| 2026-04-23 23:10 | 43.61192 | 23.41363 | 35995 ft | 434 kts | 296° |
| 2026-04-23 23:11 | 43.63514 | 23.33615 | 35992 ft | 434 kts | 296° |
| 2026-04-23 23:11 | 43.65864 | 23.25750 | 35998 ft | 434 kts | 296° |
| 2026-04-23 23:12 | 43.68157 | 23.18042 | 35978 ft | 434 kts | 296° |
| 2026-04-23 23:12 | 43.70447 | 23.10326 | 35991 ft | 434 kts | 296° |
| 2026-04-23 23:13 | 43.72733 | 23.02592 | 35986 ft | 434 kts | 296° |
| 2026-04-23 23:13 | 43.75015 | 22.94850 | 36001 ft | 435 kts | 296° |
| 2026-04-23 23:14 | 43.77292 | 22.87102 | 35986 ft | 435 kts | 296° |
| 2026-04-23 23:14 | 43.79565 | 22.79361 | 36003 ft | 435 kts | 296° |
| 2026-04-23 23:15 | 43.81840 | 22.71588 | 36020 ft | 435 kts | 296° |
| 2026-04-23 23:15 | 43.84117 | 22.63776 | 36025 ft | 435 kts | 296° |
| 2026-04-23 23:16 | 43.86377 | 22.56005 | 36020 ft | 435 kts | 296° |
| 2026-04-23 23:16 | 43.88267 | 22.49487 | 36026 ft | 435 kts | 296° |
| 2026-04-23 23:17 | 43.90515 | 22.41687 | 36032 ft | 435 kts | 296° |
| 2026-04-23 23:17 | 43.92886 | 22.33913 | 36044 ft | 433 kts | 300° |
| 2026-04-23 23:18 | 43.95549 | 22.26454 | 36044 ft | 432 kts | 301° |
| 2026-04-23 23:18 | 43.98278 | 22.18993 | 36050 ft | 433 kts | 301° |
| 2026-04-23 23:19 | 44.00914 | 22.11465 | 36052 ft | 434 kts | 300° |
| 2026-04-23 23:19 | 44.03504 | 22.03886 | 36059 ft | 434 kts | 300° |
| 2026-04-23 23:20 | 44.05524 | 21.97974 | 36058 ft | 434 kts | 300° |
| 2026-04-23 23:20 | 44.08056 | 21.90570 | 36041 ft | 430 kts | 300° |
| 2026-04-23 23:21 | 44.10640 | 21.83021 | 36057 ft | 433 kts | 300° |
| 2026-04-23 23:21 | 44.13284 | 21.75302 | 36056 ft | 433 kts | 300° |
| 2026-04-23 23:22 | 44.15861 | 21.67744 | 36058 ft | 433 kts | 300° |
| 2026-04-23 23:22 | 44.18454 | 21.60101 | 36051 ft | 434 kts | 300° |
| 2026-04-23 23:23 | 44.21039 | 21.52465 | 36057 ft | 435 kts | 300° |
| 2026-04-23 23:23 | 44.23610 | 21.44847 | 36059 ft | 435 kts | 300° |
| 2026-04-23 23:24 | 44.26180 | 21.37193 | 36080 ft | 435 kts | 300° |
| 2026-04-23 23:24 | 44.28762 | 21.29515 | 36056 ft | 433 kts | 300° |
| 2026-04-23 23:25 | 44.31322 | 21.21882 | 36039 ft | 435 kts | 300° |
| 2026-04-23 23:25 | 44.33883 | 21.14216 | 36055 ft | 436 kts | 300° |
| 2026-04-23 23:26 | 44.36453 | 21.06486 | 36047 ft | 435 kts | 300° |
| 2026-04-23 23:26 | 44.39022 | 20.98753 | 36044 ft | 437 kts | 300° |
| 2026-04-23 23:27 | 44.41583 | 20.91033 | 36045 ft | 438 kts | 300° |
| 2026-04-23 23:27 | 44.44129 | 20.83287 | 36061 ft | 438 kts | 300° |
| 2026-04-23 23:28 | 44.46673 | 20.75542 | 36060 ft | 438 kts | 300° |
| 2026-04-23 23:28 | 44.49216 | 20.67791 | 36043 ft | 438 kts | 300° |
| 2026-04-23 23:29 | 44.51760 | 20.59995 | 36042 ft | 438 kts | 300° |
| 2026-04-23 23:29 | 44.54297 | 20.52225 | 36049 ft | 439 kts | 300° |
| 2026-04-23 23:30 | 44.56830 | 20.44437 | 36051 ft | 439 kts | 300° |
| 2026-04-23 23:30 | 44.59359 | 20.36630 | 36032 ft | 439 kts | 300° |
| 2026-04-23 23:31 | 44.61902 | 20.28776 | 36039 ft | 440 kts | 300° |
| 2026-04-23 23:31 | 44.64427 | 20.20955 | 36048 ft | 441 kts | 300° |
| 2026-04-23 23:32 | 44.66951 | 20.13099 | 36060 ft | 441 kts | 300° |
| 2026-04-23 23:32 | 44.69487 | 20.05191 | 36040 ft | 441 kts | 300° |
| 2026-04-23 23:33 | 44.72014 | 19.97288 | 36044 ft | 442 kts | 300° |
| 2026-04-23 23:33 | 44.74521 | 19.89395 | 36055 ft | 443 kts | 300° |
| 2026-04-23 23:34 | 44.77027 | 19.81471 | 36062 ft | 443 kts | 300° |
| 2026-04-23 23:34 | 44.79538 | 19.73542 | 36070 ft | 443 kts | 300° |
| 2026-04-23 23:35 | 44.82045 | 19.65616 | 36055 ft | 444 kts | 300° |
| 2026-04-23 23:35 | 44.84546 | 19.57665 | 36062 ft | 444 kts | 300° |
| 2026-04-23 23:36 | 44.87041 | 19.49703 | 36071 ft | 445 kts | 300° |
| 2026-04-23 23:36 | 44.89532 | 19.41724 | 36077 ft | 445 kts | 300° |
| 2026-04-23 23:37 | 44.92020 | 19.33719 | 36064 ft | 445 kts | 300° |
| 2026-04-23 23:37 | 44.94100 | 19.27023 | 36069 ft | 445 kts | 300° |
| 2026-04-23 23:38 | 44.96587 | 19.19012 | 36077 ft | 445 kts | 300° |
| 2026-04-23 23:38 | 44.99067 | 19.10993 | 36084 ft | 445 kts | 300° |
| 2026-04-23 23:39 | 45.01536 | 19.02973 | 36080 ft | 445 kts | 300° |
| 2026-04-23 23:39 | 45.03997 | 18.94939 | 36080 ft | 445 kts | 300° |
| 2026-04-23 23:40 | 45.06472 | 18.86861 | 36081 ft | 445 kts | 300° |
| 2026-04-23 23:40 | 45.08925 | 18.78828 | 36082 ft | 445 kts | 300° |
| 2026-04-23 23:41 | 45.11355 | 18.70835 | 36066 ft | 445 kts | 299° |
| 2026-04-23 23:41 | 45.13791 | 18.62778 | 36082 ft | 446 kts | 299° |
| 2026-04-23 23:42 | 45.16227 | 18.54705 | 36087 ft | 446 kts | 299° |
| 2026-04-23 23:42 | 45.18678 | 18.46584 | 36086 ft | 446 kts | 299° |
| 2026-04-23 23:43 | 45.21116 | 18.38488 | 36068 ft | 447 kts | 299° |
| 2026-04-23 23:43 | 45.23547 | 18.30345 | 36082 ft | 447 kts | 299° |
| 2026-04-23 23:44 | 45.25967 | 18.22196 | 36082 ft | 447 kts | 299° |
| 2026-04-23 23:44 | 45.28390 | 18.14057 | 36096 ft | 448 kts | 299° |
| 2026-04-23 23:45 | 45.30809 | 18.05907 | 36097 ft | 448 kts | 299° |
| 2026-04-23 23:45 | 45.33218 | 17.97745 | 36084 ft | 448 kts | 299° |
| 2026-04-23 23:46 | 45.35629 | 17.89565 | 36099 ft | 449 kts | 299° |
| 2026-04-23 23:46 | 45.38036 | 17.81359 | 36103 ft | 449 kts | 298° |
| 2026-04-23 23:47 | 45.40432 | 17.73148 | 36119 ft | 449 kts | 298° |
| 2026-04-23 23:47 | 45.42821 | 17.64925 | 36092 ft | 450 kts | 298° |
| 2026-04-23 23:48 | 45.45210 | 17.56692 | 36106 ft | 450 kts | 298° |
| 2026-04-23 23:48 | 45.47605 | 17.48453 | 36117 ft | 451 kts | 298° |
| 2026-04-23 23:48 | 45.48805 | 17.44314 | 35925 ft | 451 kts | 298° |
| 2026-04-23 23:49 | 45.51185 | 17.36054 | 35406 ft | 449 kts | 298° |
| 2026-04-23 23:49 | 45.52367 | 17.31931 | 35157 ft | 449 kts | 298° |
| 2026-04-23 23:49 | 45.53546 | 17.27817 | 34912 ft | 448 kts | 298° |
| 2026-04-23 23:50 | 45.54719 | 17.23709 | 34665 ft | 446 kts | 298° |
| 2026-04-23 23:50 | 45.55885 | 17.19622 | 34423 ft | 444 kts | 298° |
| 2026-04-23 23:50 | 45.57044 | 17.15561 | 33925 ft | 442 kts | 298° |
| 2026-04-23 23:50 | 45.58214 | 17.11462 | 33434 ft | 439 kts | 298° |
| 2026-04-23 23:51 | 45.59344 | 17.07483 | 32966 ft | 436 kts | 298° |
| 2026-04-23 23:51 | 45.60479 | 17.03484 | 32474 ft | 433 kts | 298° |
| 2026-04-23 23:51 | 45.61618 | 16.99465 | 31985 ft | 429 kts | 298° |
| 2026-04-23 23:51 | 45.62735 | 16.95523 | 31512 ft | 426 kts | 298° |
| 2026-04-23 23:52 | 45.63846 | 16.91599 | 31040 ft | 424 kts | 297° |
| 2026-04-23 23:52 | 45.64943 | 16.87712 | 30572 ft | 422 kts | 297° |
| 2026-04-23 23:52 | 45.66036 | 16.83831 | 30093 ft | 420 kts | 297° |
| 2026-04-23 23:52 | 45.67120 | 16.79972 | 29610 ft | 416 kts | 297° |
| 2026-04-23 23:53 | 45.68194 | 16.76152 | 29163 ft | 412 kts | 297° |
| 2026-04-23 23:53 | 45.69257 | 16.72365 | 28727 ft | 409 kts | 297° |
| 2026-04-23 23:53 | 45.70311 | 16.68606 | 28299 ft | 405 kts | 297° |
| 2026-04-23 23:53 | 45.71354 | 16.64879 | 27876 ft | 403 kts | 297° |
| 2026-04-23 23:54 | 45.72387 | 16.61170 | 27475 ft | 400 kts | 297° |
| 2026-04-23 23:54 | 45.73414 | 16.57475 | 27070 ft | 398 kts | 297° |
| 2026-04-23 23:54 | 45.74432 | 16.53806 | 26665 ft | 396 kts | 296° |
| 2026-04-23 23:54 | 45.75445 | 16.50156 | 26269 ft | 393 kts | 296° |
| 2026-04-23 23:55 | 45.76455 | 16.46525 | 25862 ft | 391 kts | 296° |
| 2026-04-23 23:55 | 45.77461 | 16.42914 | 25445 ft | 389 kts | 296° |
| 2026-04-23 23:55 | 45.78459 | 16.39322 | 25038 ft | 387 kts | 296° |
| 2026-04-23 23:55 | 45.79446 | 16.35754 | 24618 ft | 386 kts | 296° |
| 2026-04-23 23:56 | 45.80431 | 16.32178 | 24177 ft | 384 kts | 296° |
| 2026-04-23 23:56 | 45.81409 | 16.28615 | 23766 ft | 383 kts | 296° |
| 2026-04-23 23:56 | 45.82381 | 16.25070 | 23289 ft | 381 kts | 296° |
| 2026-04-23 23:56 | 45.83360 | 16.21497 | 22842 ft | 378 kts | 296° |
| 2026-04-23 23:57 | 45.84316 | 16.18006 | 22393 ft | 375 kts | 295° |
| 2026-04-23 23:57 | 45.85267 | 16.14529 | 21962 ft | 372 kts | 295° |
| 2026-04-23 23:57 | 45.86220 | 16.11044 | 21525 ft | 369 kts | 295° |
| 2026-04-23 23:57 | 45.87155 | 16.07632 | 21094 ft | 366 kts | 295° |
| 2026-04-23 23:58 | 45.88087 | 16.04224 | 20658 ft | 364 kts | 295° |
| 2026-04-23 23:58 | 45.89023 | 16.00797 | 20214 ft | 361 kts | 294° |
| 2026-04-23 23:58 | 45.89920 | 15.97499 | 19797 ft | 359 kts | 294° |
| 2026-04-23 23:58 | 45.90838 | 15.94110 | 19368 ft | 356 kts | 294° |
| 2026-04-23 23:59 | 45.91715 | 15.90850 | 18968 ft | 353 kts | 294° |
| 2026-04-23 23:59 | 45.92618 | 15.87503 | 18536 ft | 351 kts | 293° |
| 2026-04-23 23:59 | 45.93496 | 15.84261 | 18082 ft | 348 kts | 293° |
| 2026-04-23 23:59 | 45.94378 | 15.80998 | 17661 ft | 344 kts | 294° |
| 2026-04-24 00:00 | 45.95244 | 15.77790 | 17256 ft | 339 kts | 294° |
| 2026-04-24 00:00 | 45.96102 | 15.74625 | 16848 ft | 336 kts | 294° |
| 2026-04-24 00:00 | 45.96943 | 15.71511 | 16449 ft | 332 kts | 293° |
| 2026-04-24 00:00 | 45.97559 | 15.68328 | 16042 ft | 332 kts | 284° |
| 2026-04-24 00:01 | 45.97868 | 15.66138 | 15792 ft | 330 kts | 284° |
| 2026-04-24 00:01 | 45.98328 | 15.62909 | 15395 ft | 328 kts | 284° |
| 2026-04-24 00:01 | 45.98785 | 15.59722 | 14997 ft | 325 kts | 285° |
| 2026-04-24 00:01 | 45.99260 | 15.56415 | 14601 ft | 323 kts | 285° |
| 2026-04-24 00:02 | 45.99750 | 15.53000 | 14180 ft | 321 kts | 285° |
| 2026-04-24 00:02 | 46.00261 | 15.49442 | 13726 ft | 319 kts | 285° |
| 2026-04-24 00:02 | 46.00585 | 15.47180 | 13435 ft | 317 kts | 285° |
| 2026-04-24 00:02 | 46.01037 | 15.44045 | 13057 ft | 314 kts | 285° |
| 2026-04-24 00:03 | 46.01476 | 15.40983 | 12686 ft | 311 kts | 285° |
| 2026-04-24 00:03 | 46.01904 | 15.37955 | 12315 ft | 308 kts | 285° |
| 2026-04-24 00:03 | 46.02340 | 15.34857 | 11933 ft | 306 kts | 285° |
| 2026-04-24 00:03 | 46.02760 | 15.31877 | 11565 ft | 303 kts | 285° |
| 2026-04-24 00:04 | 46.03180 | 15.28914 | 11273 ft | 299 kts | 285° |
| 2026-04-24 00:04 | 46.03599 | 15.25954 | 10887 ft | 297 kts | 285° |
| 2026-04-24 00:04 | 46.04011 | 15.23050 | 10524 ft | 296 kts | 285° |
| 2026-04-24 00:04 | 46.04425 | 15.20142 | 10071 ft | 298 kts | 285° |
| 2026-04-24 00:05 | 46.04832 | 15.17252 | 9802 ft | 291 kts | 284° |
| 2026-04-24 00:05 | 46.05236 | 15.14340 | 9236 ft | 285 kts | 284° |
| 2026-04-24 00:05 | 46.05609 | 15.11624 | 8881 ft | 274 kts | 284° |
| 2026-04-24 00:05 | 46.05975 | 15.08970 | 8545 ft | 262 kts | 284° |
| 2026-04-24 00:06 | 46.06317 | 15.06510 | 8247 ft | 258 kts | 284° |
| 2026-04-24 00:06 | 46.06685 | 15.03885 | 7911 ft | 258 kts | 284° |
| 2026-04-24 00:06 | 46.07036 | 15.01374 | 7609 ft | 257 kts | 284° |
| 2026-04-24 00:06 | 46.07386 | 14.98861 | 7301 ft | 256 kts | 284° |
| 2026-04-24 00:07 | 46.07736 | 14.96348 | 6997 ft | 256 kts | 284° |
| 2026-04-24 00:07 | 46.08084 | 14.93841 | 6666 ft | 254 kts | 283° |
| 2026-04-24 00:07 | 46.08428 | 14.91348 | 6348 ft | 254 kts | 283° |
| 2026-04-24 00:07 | 46.08773 | 14.88845 | 6062 ft | 253 kts | 283° |
| 2026-04-24 00:08 | 46.09132 | 14.86229 | 6002 ft | 266 kts | 283° |
| 2026-04-24 00:08 | 46.09494 | 14.83590 | 5915 ft | 269 kts | 283° |
| 2026-04-24 00:08 | 46.09858 | 14.80929 | 5862 ft | 271 kts | 283° |
| 2026-04-24 00:08 | 46.10215 | 14.78296 | 5803 ft | 261 kts | 283° |
| 2026-04-24 00:09 | 46.10555 | 14.75779 | 5743 ft | 249 kts | 283° |
| 2026-04-24 00:09 | 46.10866 | 14.73464 | 5735 ft | 230 kts | 283° |
| 2026-04-24 00:09 | 46.11168 | 14.71221 | 5645 ft | 214 kts | 283° |
| 2026-04-24 00:09 | 46.11455 | 14.69104 | 5172 ft | 218 kts | 283° |
| 2026-04-24 00:10 | 46.11776 | 14.66965 | 4606 ft | 216 kts | 288° |
| 2026-04-24 00:10 | 46.12441 | 14.65084 | 4219 ft | 207 kts | 306° |
| 2026-04-24 00:10 | 46.13290 | 14.63441 | 3925 ft | 198 kts | 307° |
| 2026-04-24 00:10 | 46.14093 | 14.61881 | 3664 ft | 188 kts | 307° |
| 2026-04-24 00:11 | 46.14842 | 14.60426 | 3439 ft | 173 kts | 306° |
| 2026-04-24 00:11 | 46.15552 | 14.59046 | 3198 ft | 165 kts | 306° |
| 2026-04-24 00:11 | 46.16230 | 14.57729 | 2972 ft | 162 kts | 306° |
| 2026-04-24 00:11 | 46.16886 | 14.56452 | 2783 ft | 156 kts | 306° |
| 2026-04-24 00:12 | 46.17533 | 14.55193 | 2550 ft | 152 kts | 306° |
| 2026-04-24 00:12 | 46.18159 | 14.53974 | 2355 ft | 151 kts | 306° |
| 2026-04-24 00:12 | 46.18792 | 14.52745 | 2130 ft | 150 kts | 306° |
| 2026-04-24 00:12 | 46.19417 | 14.51552 | 1895 ft | 149 kts | 307° |
| 2026-04-24 00:13 | 46.20033 | 14.50363 | 1698 ft | 148 kts | 305° |
| 2026-04-24 00:13 | 46.20633 | 14.49157 | 1513 ft | 147 kts | 305° |
| 2026-04-24 00:13 | 46.21244 | 14.47960 | 1331 ft | 145 kts | 307° |
| 2026-04-24 00:13 | 46.21428 | 14.47610 | 1280 ft | 146 kts | 306° |
| 2026-04-24 00:14 | 46.21995 | 14.46493 | 1231 ft | 128 kts | 306° |
| 2026-04-24 00:14 | 46.22426 | 14.45652 | 1252 ft | 80 kts | 306° |
| 2026-04-24 00:14 | 46.22528 | 14.45447 | 1258 ft | 70 kts | 305° |
| 2026-04-24 00:14 | 46.22691 | 14.45121 | 1270 ft | 45 kts | 306° |
| 2026-04-24 00:15 | 46.22835 | 14.44838 | 1267 ft | 25 kts | 306° |
| 2026-04-24 00:15 | 46.22916 | 14.44679 | 1273 ft | 16 kts | 306° |
| 2026-04-24 00:15 | 46.22975 | 14.44565 | 1276 ft | 13 kts | 306° |
| 2026-04-24 00:15 | 46.23029 | 14.44458 | 1274 ft | 13 kts | 306° |
| 2026-04-24 00:16 | 46.23081 | 14.44357 | 1276 ft | 13 kts | 306° |
| 2026-04-24 00:16 | 46.23133 | 14.44254 | 1279 ft | 12 kts | 306° |
| 2026-04-24 00:16 | 46.23182 | 14.44159 | 1280 ft | 12 kts | 306° |
| 2026-04-24 00:16 | 46.23249 | 14.44096 | 1284 ft | 12 kts | 338° |
| 2026-04-24 00:17 | 46.23348 | 14.44081 | 1286 ft | 17 kts | 16° |
| 2026-04-24 00:17 | 46.23387 | 14.44234 | 1283 ft | 22 kts | 123° |
| 2026-04-24 00:17 | 46.23303 | 14.44399 | 1278 ft | 17 kts | 127° |
| 2026-04-24 00:17 | 46.23211 | 14.44576 | 1272 ft | 26 kts | 126° |
| 2026-04-24 00:18 | 46.23132 | 14.44736 | 1270 ft | 15 kts | 125° |
| 2026-04-24 00:18 | 46.23087 | 14.44852 | 1265 ft | 14 kts | 87° |
| 2026-04-24 00:18 | 46.23155 | 14.44942 | 1265 ft | 9 kts | 37° |
| 2026-04-24 00:18 | 46.23140 | 14.45043 | 1265 ft | 14 kts | 123° |
| 2026-04-24 00:19 | 46.23092 | 14.45137 | 1259 ft | 8 kts | 127° |
| 2026-04-24 00:19 | 46.23056 | 14.45209 | 1268 ft | 0 kts | 114° |
| 2026-04-24 00:19 | 46.23055 | 14.45211 | 1268 ft | 2 kts | 116° |
| 2026-04-24 00:19 | 46.23038 | 14.45242 | 1269 ft | 5 kts | 128° |
| 2026-04-24 00:20 | 46.23017 | 14.45282 | 1261 ft | 0 kts | 128° |
| 2026-04-24 00:20 | 46.23011 | 14.45292 | 1269 ft | 2 kts | 128° |
| 2026-04-24 00:20 | 46.22995 | 14.45321 | 1259 ft | 5 kts | 128° |
| 2026-04-24 00:20 | 46.22985 | 14.45339 | 1260 ft | 1 kts | 128° |
| 2026-04-24 00:21 | 46.22981 | 14.45356 | 1260 ft | 2 kts | 95° |
| 2026-04-24 00:21 | 46.22992 | 14.45381 | 1258 ft | 4 kts | 48° |
| 2026-04-24 00:21 | 46.23010 | 14.45402 | 1263 ft | 1 kts | 36° |
| 2026-04-24 00:21 | 46.23021 | 14.45413 | 1261 ft | 3 kts | 36° |
| 2026-04-24 00:22 | 46.23025 | 14.45418 | 1258 ft | 0 kts | 36° |
| 2026-04-24 00:22 | 46.23026 | 14.45419 | 1258 ft | 0 kts | 36° |